TimeEDT,TemperatureF,Dew PointF,Humidity,Sea Level PressureIn,VisibilityMPH,Wind Direction,Wind SpeedMPH,Gust SpeedMPH,PrecipitationIn,Events,Conditions,WindDirDegrees,DateUTC
12:15 AM,44.2,33.3,65,30.19,10.0,SSW,5.8,-,N/A,,Clear,210,2012-10-12 04:15:00
12:35 AM,43.0,32.2,66,30.19,10.0,SSW,3.5,-,N/A,,Clear,210,2012-10-12 04:35:00
12:55 AM,45.7,32.5,60,30.20,10.0,Calm,Calm,-,N/A,,Clear,0,2012-10-12 04:55:00
1:15 AM,46.0,32.2,58,30.20,10.0,SW,3.5,-,N/A,,Clear,230,2012-10-12 05:15:00
1:35 AM,44.4,32.2,62,30.20,10.0,SW,3.5,-,N/A,,Clear,230,2012-10-12 05:35:00
2:15 AM,44.8,33.3,64,30.19,10.0,SSW,3.5,-,N/A,,Clear,200,2012-10-12 06:15:00
2:35 AM,43.0,35.6,75,30.18,10.0,Calm,Calm,-,N/A,,Clear,0,2012-10-12 06:35:00
2:55 AM,43.0,34.5,72,30.19,10.0,Calm,Calm,-,N/A,,Clear,0,2012-10-12 06:55:00
3:15 AM,42.3,34.9,75,30.20,10.0,SSW,4.6,-,N/A,,Scattered Clouds,200,2012-10-12 07:15:00
3:35 AM,42.1,34.9,76,30.19,10.0,South,4.6,-,N/A,,Mostly Cloudy,180,2012-10-12 07:35:00
4:15 AM,44.1,36.0,73,30.20,10.0,SW,3.5,-,N/A,,Overcast,220,2012-10-12 08:15:00
4:35 AM,43.7,37.4,78,30.20,10.0,SW,5.8,-,N/A,Rain,Light Rain,220,2012-10-12 08:35:00
4:55 AM,43.2,38.3,83,30.21,10.0,SSW,3.5,-,N/A,,Scattered Clouds,210,2012-10-12 08:55:00
5:15 AM,42.4,37.6,83,30.21,10.0,Calm,Calm,-,N/A,,Clear,0,2012-10-12 09:15:00
5:35 AM,43.0,37.6,81,30.21,10.0,WSW,3.5,-,N/A,,Clear,250,2012-10-12 09:35:00
5:55 AM,44.6,37.4,76,30.23,10.0,West,3.5,-,N/A,,Clear,260,2012-10-12 09:55:00
6:15 AM,45.9,37.8,73,30.24,10.0,WNW,4.6,-,N/A,,Scattered Clouds,300,2012-10-12 10:15:00
6:35 AM,45.5,38.3,76,30.24,10.0,NW,5.8,-,N/A,,Scattered Clouds,320,2012-10-12 10:35:00
6:55 AM,46.8,38.3,72,30.26,10.0,NNW,9.2,-,N/A,,Scattered Clouds,340,2012-10-12 10:55:00
7:15 AM,46.8,39.9,77,30.27,10.0,North,13.8,-,N/A,,Scattered Clouds,360,2012-10-12 11:15:00
7:20 AM,46.4,39.2,76,30.27,10.0,North,15.0,-,N/A,,Scattered Clouds,360,2012-10-12 11:20:00
7:35 AM,46.4,40.3,79,30.28,10.0,North,13.8,21.9,N/A,,Mostly Cloudy,360,2012-10-12 11:35:00
7:50 AM,46.4,39.2,76,30.28,10.0,North,13.8,-,N/A,,Mostly Cloudy,360,2012-10-12 11:50:00
7:55 AM,45.7,39.2,78,30.29,10.0,North,15.0,18.4,N/A,,Overcast,360,2012-10-12 11:55:00
8:15 AM,45.5,37.9,75,30.30,10.0,North,15.0,-,N/A,,Overcast,360,2012-10-12 12:15:00
8:55 AM,46.4,37.4,71,30.33,10.0,North,8.1,-,N/A,,Mostly Cloudy,360,2012-10-12 12:55:00
9:50 AM,46.4,35.6,66,30.36,10.0,North,11.5,-,N/A,,Overcast,360,2012-10-12 13:50:00
10:50 AM,46.4,35.6,66,30.39,10.0,North,11.5,-,N/A,,Overcast,10,2012-10-12 14:50:00
12:55 PM,53.6,30.2,41,30.39,10.0,North,6.9,-,N/A,,Partly Cloudy,10,2012-10-12 16:55:00
1:50 PM,53.6,30.2,41,30.37,10.0,North,13.8,-,N/A,,Clear,360,2012-10-12 17:50:00
2:55 PM,55.4,28.4,36,30.36,10.0,North,11.5,-,N/A,,Clear,350,2012-10-12 18:55:00
4:50 PM,55.4,26.6,33,30.34,10.0,North,6.9,-,N/A,,Clear,350,2012-10-12 20:50:00
9:15 PM,42.3,28.9,59,30.37,10.0,North,3.5,-,N/A,,Clear,10,2012-10-13 01:15:00
9:35 PM,41.0,29.3,63,30.38,10.0,Calm,Calm,-,N/A,,Clear,0,2012-10-13 01:35:00
9:55 PM,41.7,29.1,61,30.38,10.0,NE,4.6,-,N/A,,Clear,40,2012-10-13 01:55:00
10:15 PM,43.7,28.6,55,30.38,10.0,NE,3.5,-,N/A,,Clear,40,2012-10-13 02:15:00
10:35 PM,43.3,28.8,56,30.38,10.0,NE,3.5,-,N/A,,Clear,50,2012-10-13 02:35:00
10:55 PM,43.5,28.8,56,30.38,10.0,NE,3.5,-,N/A,,Clear,50,2012-10-13 02:55:00
11:15 PM,42.8,28.8,58,30.38,10.0,NE,3.5,-,N/A,,Clear,50,2012-10-13 03:15:00
11:35 PM,41.2,28.4,60,30.39,10.0,Calm,Calm,-,N/A,,Clear,0,2012-10-13 03:35:00
11:55 PM,41.4,28.4,60,30.38,10.0,NE,3.5,-,N/A,,Clear,50,2012-10-13 03:55:00